sensor_id;sensor_type;location;lat;lon;timestamp;P1;durP1;ratioP1;P2;durP2;ratioP2
63801;SDS011;49949;43.060;25.624;2022-07-09T00:01:37;4.00;;;3.55;;
63801;SDS011;49949;43.060;25.624;2022-07-09T00:04:03;6.30;;;2.85;;
63801;SDS011;49949;43.060;25.624;2022-07-09T00:06:29;9.82;;;3.95;;
63801;SDS011;49949;43.060;25.624;2022-07-09T00:08:56;6.18;;;3.15;;
63801;SDS011;49949;43.060;25.624;2022-07-09T00:11:22;5.55;;;3.15;;
63801;SDS011;49949;43.060;25.624;2022-07-09T00:13:48;7.38;;;3.38;;
63801;SDS011;49949;43.060;25.624;2022-07-09T00:16:14;10.52;;;3.40;;
63801;SDS011;49949;43.060;25.624;2022-07-09T00:18:40;11.70;;;4.15;;
63801;SDS011;49949;43.060;25.624;2022-07-09T00:21:05;11.52;;;4.25;;
63801;SDS011;49949;43.060;25.624;2022-07-09T00:23:31;18.20;;;6.38;;
63801;SDS011;49949;43.060;25.624;2022-07-09T00:25:58;13.82;;;8.02;;
63801;SDS011;49949;43.060;25.624;2022-07-09T00:28:24;18.50;;;7.63;;
63801;SDS011;49949;43.060;25.624;2022-07-09T00:30:50;18.65;;;4.70;;
63801;SDS011;49949;43.060;25.624;2022-07-09T00:33:15;8.57;;;5.15;;
63801;SDS011;49949;43.060;25.624;2022-07-09T00:35:41;13.55;;;7.07;;
63801;SDS011;49949;43.060;25.624;2022-07-09T00:38:07;12.20;;;5.45;;
63801;SDS011;49949;43.060;25.624;2022-07-09T00:40:33;13.20;;;6.45;;
63801;SDS011;49949;43.060;25.624;2022-07-09T00:42:59;11.82;;;6.72;;
63801;SDS011;49949;43.060;25.624;2022-07-09T00:45:25;19.02;;;6.95;;
63801;SDS011;49949;43.060;25.624;2022-07-09T00:47:51;12.40;;;5.10;;
63801;SDS011;49949;43.060;25.624;2022-07-09T00:50:17;7.85;;;4.38;;
63801;SDS011;49949;43.060;25.624;2022-07-09T00:52:44;8.80;;;5.07;;
63801;SDS011;49949;43.060;25.624;2022-07-09T00:55:10;14.63;;;7.20;;
63801;SDS011;49949;43.060;25.624;2022-07-09T00:57:37;11.77;;;6.32;;
63801;SDS011;49949;43.060;25.624;2022-07-09T01:00:04;13.25;;;6.70;;
63801;SDS011;49949;43.060;25.624;2022-07-09T01:02:30;20.30;;;7.10;;
63801;SDS011;49949;43.060;25.624;2022-07-09T01:04:56;7.53;;;5.38;;
63801;SDS011;49949;43.060;25.624;2022-07-09T01:07:22;11.65;;;6.55;;
63801;SDS011;49949;43.060;25.624;2022-07-09T01:09:48;14.63;;;6.50;;
63801;SDS011;49949;43.060;25.624;2022-07-09T01:12:14;13.13;;;5.95;;
63801;SDS011;49949;43.060;25.624;2022-07-09T01:14:40;10.55;;;5.70;;
63801;SDS011;49949;43.060;25.624;2022-07-09T01:17:06;13.20;;;5.40;;
63801;SDS011;49949;43.060;25.624;2022-07-09T01:19:32;10.70;;;5.50;;
63801;SDS011;49949;43.060;25.624;2022-07-09T01:21:59;11.30;;;5.75;;
63801;SDS011;49949;43.060;25.624;2022-07-09T01:24:25;8.85;;;5.28;;
63801;SDS011;49949;43.060;25.624;2022-07-09T01:26:51;9.18;;;5.40;;
63801;SDS011;49949;43.060;25.624;2022-07-09T01:29:18;9.50;;;5.50;;
63801;SDS011;49949;43.060;25.624;2022-07-09T01:31:43;8.23;;;5.63;;
63801;SDS011;49949;43.060;25.624;2022-07-09T01:34:09;6.93;;;5.15;;
63801;SDS011;49949;43.060;25.624;2022-07-09T01:36:35;11.63;;;5.93;;
63801;SDS011;49949;43.060;25.624;2022-07-09T01:39:01;9.18;;;6.05;;
63801;SDS011;49949;43.060;25.624;2022-07-09T01:41:27;10.75;;;6.38;;
63801;SDS011;49949;43.060;25.624;2022-07-09T01:43:53;8.27;;;5.95;;
63801;SDS011;49949;43.060;25.624;2022-07-09T01:46:19;13.85;;;6.28;;
63801;SDS011;49949;43.060;25.624;2022-07-09T01:48:44;6.28;;;5.05;;
63801;SDS011;49949;43.060;25.624;2022-07-09T01:51:11;9.10;;;5.53;;
63801;SDS011;49949;43.060;25.624;2022-07-09T01:53:37;9.30;;;5.78;;
63801;SDS011;49949;43.060;25.624;2022-07-09T01:56:07;7.43;;;4.90;;
63801;SDS011;49949;43.060;25.624;2022-07-09T01:58:35;10.75;;;5.43;;
63801;SDS011;49949;43.060;25.624;2022-07-09T02:01:01;9.77;;;4.88;;
63801;SDS011;49949;43.060;25.624;2022-07-09T02:03:28;10.52;;;5.50;;
63801;SDS011;49949;43.060;25.624;2022-07-09T02:05:54;9.13;;;5.05;;
63801;SDS011;49949;43.060;25.624;2022-07-09T02:08:21;8.75;;;5.10;;
63801;SDS011;49949;43.060;25.624;2022-07-09T02:10:47;6.97;;;5.00;;
63801;SDS011;49949;43.060;25.624;2022-07-09T02:13:14;9.40;;;5.60;;
63801;SDS011;49949;43.060;25.624;2022-07-09T02:15:39;7.65;;;5.30;;
63801;SDS011;49949;43.060;25.624;2022-07-09T02:18:05;8.45;;;5.78;;
63801;SDS011;49949;43.060;25.624;2022-07-09T02:20:31;5.70;;;5.15;;
63801;SDS011;49949;43.060;25.624;2022-07-09T02:22:57;10.95;;;5.00;;
63801;SDS011;49949;43.060;25.624;2022-07-09T02:25:23;17.45;;;5.32;;
63801;SDS011;49949;43.060;25.624;2022-07-09T02:27:49;7.50;;;5.40;;
63801;SDS011;49949;43.060;25.624;2022-07-09T02:30:14;19.42;;;5.75;;
63801;SDS011;49949;43.060;25.624;2022-07-09T02:32:40;7.65;;;4.97;;
63801;SDS011;49949;43.060;25.624;2022-07-09T02:35:06;8.45;;;5.47;;
63801;SDS011;49949;43.060;25.624;2022-07-09T02:37:33;7.57;;;5.57;;
63801;SDS011;49949;43.060;25.624;2022-07-09T02:39:59;9.43;;;5.15;;
63801;SDS011;49949;43.060;25.624;2022-07-09T02:42:24;8.70;;;4.72;;
63801;SDS011;49949;43.060;25.624;2022-07-09T02:44:50;17.13;;;5.65;;
63801;SDS011;49949;43.060;25.624;2022-07-09T02:47:16;11.52;;;5.20;;
63801;SDS011;49949;43.060;25.624;2022-07-09T02:49:42;17.15;;;6.32;;
63801;SDS011;49949;43.060;25.624;2022-07-09T02:52:07;12.90;;;5.82;;
63801;SDS011;49949;43.060;25.624;2022-07-09T02:54:33;14.32;;;7.03;;
63801;SDS011;49949;43.060;25.624;2022-07-09T02:56:59;10.98;;;5.53;;
63801;SDS011;49949;43.060;25.624;2022-07-09T02:59:26;10.82;;;7.13;;
63801;SDS011;49949;43.060;25.624;2022-07-09T03:01:52;13.63;;;6.63;;
63801;SDS011;49949;43.060;25.624;2022-07-09T03:04:17;21.67;;;7.18;;
63801;SDS011;49949;43.060;25.624;2022-07-09T03:06:43;12.10;;;7.40;;
63801;SDS011;49949;43.060;25.624;2022-07-09T03:09:09;17.17;;;6.97;;
63801;SDS011;49949;43.060;25.624;2022-07-09T03:11:35;20.02;;;10.40;;
63801;SDS011;49949;43.060;25.624;2022-07-09T03:14:00;8.27;;;5.88;;
63801;SDS011;49949;43.060;25.624;2022-07-09T03:16:26;15.27;;;6.97;;
63801;SDS011;49949;43.060;25.624;2022-07-09T03:18:52;18.52;;;10.40;;
63801;SDS011;49949;43.060;25.624;2022-07-09T03:21:17;9.50;;;6.25;;
63801;SDS011;49949;43.060;25.624;2022-07-09T03:23:43;8.95;;;5.85;;
63801;SDS011;49949;43.060;25.624;2022-07-09T03:26:09;10.00;;;5.93;;
63801;SDS011;49949;43.060;25.624;2022-07-09T03:28:35;8.32;;;5.93;;
63801;SDS011;49949;43.060;25.624;2022-07-09T03:31:01;14.45;;;5.40;;
63801;SDS011;49949;43.060;25.624;2022-07-09T03:33:27;12.57;;;6.03;;
63801;SDS011;49949;43.060;25.624;2022-07-09T03:35:53;12.82;;;6.55;;
63801;SDS011;49949;43.060;25.624;2022-07-09T03:38:20;15.18;;;6.30;;
63801;SDS011;49949;43.060;25.624;2022-07-09T03:40:46;9.73;;;5.80;;
63801;SDS011;49949;43.060;25.624;2022-07-09T03:43:11;8.05;;;5.70;;
63801;SDS011;49949;43.060;25.624;2022-07-09T03:45:37;7.85;;;5.57;;
63801;SDS011;49949;43.060;25.624;2022-07-09T03:48:03;8.05;;;5.10;;
63801;SDS011;49949;43.060;25.624;2022-07-09T03:50:29;12.75;;;5.43;;
63801;SDS011;49949;43.060;25.624;2022-07-09T03:52:56;14.32;;;5.35;;
63801;SDS011;49949;43.060;25.624;2022-07-09T03:55:23;11.00;;;5.03;;
63801;SDS011;49949;43.060;25.624;2022-07-09T03:57:49;12.60;;;4.40;;
63801;SDS011;49949;43.060;25.624;2022-07-09T04:00:15;17.20;;;4.90;;
63801;SDS011;49949;43.060;25.624;2022-07-09T04:02:41;7.22;;;3.55;;
63801;SDS011;49949;43.060;25.624;2022-07-09T04:05:07;7.05;;;3.58;;
63801;SDS011;49949;43.060;25.624;2022-07-09T04:07:35;5.22;;;2.80;;
63801;SDS011;49949;43.060;25.624;2022-07-09T04:10:01;2.47;;;2.25;;
63801;SDS011;49949;43.060;25.624;2022-07-09T04:12:26;4.55;;;2.97;;
63801;SDS011;49949;43.060;25.624;2022-07-09T04:14:52;4.05;;;2.72;;
63801;SDS011;49949;43.060;25.624;2022-07-09T04:17:18;4.70;;;2.80;;
63801;SDS011;49949;43.060;25.624;2022-07-09T04:19:44;4.90;;;2.58;;
63801;SDS011;49949;43.060;25.624;2022-07-09T04:22:09;2.65;;;2.45;;
63801;SDS011;49949;43.060;25.624;2022-07-09T04:24:35;3.42;;;2.70;;
63801;SDS011;49949;43.060;25.624;2022-07-09T04:27:00;7.60;;;2.80;;
63801;SDS011;49949;43.060;25.624;2022-07-09T04:29:26;13.40;;;2.92;;
63801;SDS011;49949;43.060;25.624;2022-07-09T04:31:52;9.07;;;2.50;;
63801;SDS011;49949;43.060;25.624;2022-07-09T04:34:18;5.90;;;2.70;;
63801;SDS011;49949;43.060;25.624;2022-07-09T04:36:43;7.72;;;2.65;;
63801;SDS011;49949;43.060;25.624;2022-07-09T04:39:09;11.23;;;2.70;;
63801;SDS011;49949;43.060;25.624;2022-07-09T04:41:35;14.88;;;3.33;;
63801;SDS011;49949;43.060;25.624;2022-07-09T04:44:02;10.35;;;3.15;;
63801;SDS011;49949;43.060;25.624;2022-07-09T04:46:27;11.73;;;2.90;;
63801;SDS011;49949;43.060;25.624;2022-07-09T04:48:55;10.57;;;3.90;;
63801;SDS011;49949;43.060;25.624;2022-07-09T04:51:21;18.63;;;3.33;;
63801;SDS011;49949;43.060;25.624;2022-07-09T04:53:47;18.75;;;3.50;;
63801;SDS011;49949;43.060;25.624;2022-07-09T04:56:13;9.07;;;3.55;;
63801;SDS011;49949;43.060;25.624;2022-07-09T04:58:39;5.10;;;3.00;;
63801;SDS011;49949;43.060;25.624;2022-07-09T05:01:16;11.93;;;4.32;;
63801;SDS011;49949;43.060;25.624;2022-07-09T05:03:43;15.52;;;5.05;;
63801;SDS011;49949;43.060;25.624;2022-07-09T05:06:09;46.38;;;4.93;;
63801;SDS011;49949;43.060;25.624;2022-07-09T05:08:35;15.07;;;4.22;;
63801;SDS011;49949;43.060;25.624;2022-07-09T05:11:00;22.88;;;3.60;;
63801;SDS011;49949;43.060;25.624;2022-07-09T05:13:26;9.90;;;4.10;;
63801;SDS011;49949;43.060;25.624;2022-07-09T05:15:52;5.40;;;3.58;;
63801;SDS011;49949;43.060;25.624;2022-07-09T05:18:17;5.43;;;2.88;;
63801;SDS011;49949;43.060;25.624;2022-07-09T05:20:43;22.27;;;3.40;;
63801;SDS011;49949;43.060;25.624;2022-07-09T05:23:09;12.60;;;2.97;;
63801;SDS011;49949;43.060;25.624;2022-07-09T05:25:34;23.40;;;3.10;;
63801;SDS011;49949;43.060;25.624;2022-07-09T05:28:00;7.63;;;3.05;;
63801;SDS011;49949;43.060;25.624;2022-07-09T05:30:26;23.15;;;3.33;;
63801;SDS011;49949;43.060;25.624;2022-07-09T05:32:51;24.85;;;4.30;;
63801;SDS011;49949;43.060;25.624;2022-07-09T05:35:17;16.25;;;3.45;;
63801;SDS011;49949;43.060;25.624;2022-07-09T05:37:43;16.00;;;3.13;;
63801;SDS011;49949;43.060;25.624;2022-07-09T05:40:09;9.88;;;4.15;;
63801;SDS011;49949;43.060;25.624;2022-07-09T05:42:36;9.05;;;2.88;;
63801;SDS011;49949;43.060;25.624;2022-07-09T05:45:02;30.42;;;4.85;;
63801;SDS011;49949;43.060;25.624;2022-07-09T05:47:28;36.53;;;3.53;;
63801;SDS011;49949;43.060;25.624;2022-07-09T05:49:53;56.90;;;5.40;;
63801;SDS011;49949;43.060;25.624;2022-07-09T05:52:19;21.25;;;6.38;;
63801;SDS011;49949;43.060;25.624;2022-07-09T05:54:45;25.70;;;6.43;;
63801;SDS011;49949;43.060;25.624;2022-07-09T05:57:10;61.30;;;5.22;;
63801;SDS011;49949;43.060;25.624;2022-07-09T05:59:36;75.90;;;5.40;;
63801;SDS011;49949;43.060;25.624;2022-07-09T06:02:02;44.85;;;3.10;;
63801;SDS011;49949;43.060;25.624;2022-07-09T06:04:30;13.73;;;2.42;;
63801;SDS011;49949;43.060;25.624;2022-07-09T06:06:56;27.27;;;3.60;;
63801;SDS011;49949;43.060;25.624;2022-07-09T06:09:21;14.48;;;2.55;;
63801;SDS011;49949;43.060;25.624;2022-07-09T06:11:47;4.07;;;2.30;;
63801;SDS011;49949;43.060;25.624;2022-07-09T06:14:13;11.07;;;1.85;;
63801;SDS011;49949;43.060;25.624;2022-07-09T06:16:38;30.73;;;4.63;;
63801;SDS011;49949;43.060;25.624;2022-07-09T06:19:04;14.75;;;2.83;;
63801;SDS011;49949;43.060;25.624;2022-07-09T06:21:30;12.10;;;2.53;;
63801;SDS011;49949;43.060;25.624;2022-07-09T06:23:55;6.03;;;2.00;;
63801;SDS011;49949;43.060;25.624;2022-07-09T06:26:21;4.05;;;2.08;;
63801;SDS011;49949;43.060;25.624;2022-07-09T06:28:47;3.03;;;2.38;;
63801;SDS011;49949;43.060;25.624;2022-07-09T06:31:13;13.60;;;2.65;;
63801;SDS011;49949;43.060;25.624;2022-07-09T06:33:39;2.83;;;2.10;;
63801;SDS011;49949;43.060;25.624;2022-07-09T06:36:04;6.45;;;2.75;;
63801;SDS011;49949;43.060;25.624;2022-07-09T06:38:30;2.78;;;2.15;;
63801;SDS011;49949;43.060;25.624;2022-07-09T06:40:56;6.63;;;2.10;;
63801;SDS011;49949;43.060;25.624;2022-07-09T06:43:22;6.55;;;2.45;;
63801;SDS011;49949;43.060;25.624;2022-07-09T06:45:48;43.03;;;5.10;;
63801;SDS011;49949;43.060;25.624;2022-07-09T06:48:14;37.75;;;4.38;;
63801;SDS011;49949;43.060;25.624;2022-07-09T06:50:39;63.58;;;5.22;;
63801;SDS011;49949;43.060;25.624;2022-07-09T06:53:05;11.98;;;2.17;;
63801;SDS011;49949;43.060;25.624;2022-07-09T06:55:31;5.10;;;2.15;;
63801;SDS011;49949;43.060;25.624;2022-07-09T06:57:56;5.82;;;2.20;;
63801;SDS011;49949;43.060;25.624;2022-07-09T07:00:23;4.55;;;2.10;;
63801;SDS011;49949;43.060;25.624;2022-07-09T07:02:49;11.18;;;1.90;;
63801;SDS011;49949;43.060;25.624;2022-07-09T07:05:15;3.88;;;1.95;;
63801;SDS011;49949;43.060;25.624;2022-07-09T07:07:41;6.18;;;2.28;;
63801;SDS011;49949;43.060;25.624;2022-07-09T07:10:06;10.27;;;2.70;;
63801;SDS011;49949;43.060;25.624;2022-07-09T07:12:33;6.18;;;2.22;;
63801;SDS011;49949;43.060;25.624;2022-07-09T07:14:59;27.02;;;2.90;;
63801;SDS011;49949;43.060;25.624;2022-07-09T07:17:25;5.45;;;2.20;;
63801;SDS011;49949;43.060;25.624;2022-07-09T07:19:51;2.20;;;2.00;;
63801;SDS011;49949;43.060;25.624;2022-07-09T07:22:17;6.10;;;2.08;;
63801;SDS011;49949;43.060;25.624;2022-07-09T07:24:42;3.90;;;1.88;;
63801;SDS011;49949;43.060;25.624;2022-07-09T07:27:08;4.88;;;1.80;;
63801;SDS011;49949;43.060;25.624;2022-07-09T07:29:34;3.78;;;1.98;;
63801;SDS011;49949;43.060;25.624;2022-07-09T07:31:59;6.13;;;1.65;;
63801;SDS011;49949;43.060;25.624;2022-07-09T07:34:25;3.40;;;1.90;;
63801;SDS011;49949;43.060;25.624;2022-07-09T07:36:51;5.32;;;1.80;;
63801;SDS011;49949;43.060;25.624;2022-07-09T07:39:17;3.85;;;2.33;;
63801;SDS011;49949;43.060;25.624;2022-07-09T07:41:44;8.88;;;1.98;;
63801;SDS011;49949;43.060;25.624;2022-07-09T07:44:09;5.38;;;1.70;;
63801;SDS011;49949;43.060;25.624;2022-07-09T07:46:35;2.35;;;1.85;;
63801;SDS011;49949;43.060;25.624;2022-07-09T07:49:01;6.60;;;1.80;;
63801;SDS011;49949;43.060;25.624;2022-07-09T07:51:27;6.85;;;1.80;;
63801;SDS011;49949;43.060;25.624;2022-07-09T07:53:52;4.22;;;1.90;;
63801;SDS011;49949;43.060;25.624;2022-07-09T07:56:18;2.67;;;1.63;;
63801;SDS011;49949;43.060;25.624;2022-07-09T07:58:44;9.75;;;2.10;;
63801;SDS011;49949;43.060;25.624;2022-07-09T08:01:09;2.67;;;1.60;;
63801;SDS011;49949;43.060;25.624;2022-07-09T08:03:35;3.88;;;2.00;;
63801;SDS011;49949;43.060;25.624;2022-07-09T08:06:01;12.60;;;2.10;;
63801;SDS011;49949;43.060;25.624;2022-07-09T08:08:26;4.75;;;2.10;;
63801;SDS011;49949;43.060;25.624;2022-07-09T08:10:53;5.68;;;1.95;;
63801;SDS011;49949;43.060;25.624;2022-07-09T08:13:19;2.72;;;1.63;;
63801;SDS011;49949;43.060;25.624;2022-07-09T08:15:44;14.70;;;2.10;;
63801;SDS011;49949;43.060;25.624;2022-07-09T08:18:10;3.70;;;1.88;;
63801;SDS011;49949;43.060;25.624;2022-07-09T08:20:40;18.95;;;2.42;;
63801;SDS011;49949;43.060;25.624;2022-07-09T08:23:06;12.48;;;2.10;;
63801;SDS011;49949;43.060;25.624;2022-07-09T08:25:32;4.03;;;1.60;;
63801;SDS011;49949;43.060;25.624;2022-07-09T08:27:58;2.78;;;1.50;;
63801;SDS011;49949;43.060;25.624;2022-07-09T08:30:24;1.75;;;1.60;;
63801;SDS011;49949;43.060;25.624;2022-07-09T08:32:49;3.05;;;1.55;;
63801;SDS011;49949;43.060;25.624;2022-07-09T08:35:15;4.70;;;1.63;;
63801;SDS011;49949;43.060;25.624;2022-07-09T08:37:41;5.45;;;1.70;;
63801;SDS011;49949;43.060;25.624;2022-07-09T08:40:07;13.32;;;2.03;;
63801;SDS011;49949;43.060;25.624;2022-07-09T08:42:33;22.10;;;2.50;;
63801;SDS011;49949;43.060;25.624;2022-07-09T08:44:59;69.95;;;4.82;;
63801;SDS011;49949;43.060;25.624;2022-07-09T08:47:25;8.48;;;1.67;;
63801;SDS011;49949;43.060;25.624;2022-07-09T08:49:54;9.98;;;1.65;;
63801;SDS011;49949;43.060;25.624;2022-07-09T08:52:22;9.43;;;1.63;;
63801;SDS011;49949;43.060;25.624;2022-07-09T08:54:49;10.02;;;1.70;;
63801;SDS011;49949;43.060;25.624;2022-07-09T08:57:17;14.55;;;2.05;;
63801;SDS011;49949;43.060;25.624;2022-07-09T08:59:43;3.53;;;1.67;;
63801;SDS011;49949;43.060;25.624;2022-07-09T09:02:09;4.50;;;1.85;;
63801;SDS011;49949;43.060;25.624;2022-07-09T09:04:35;1.45;;;1.35;;
63801;SDS011;49949;43.060;25.624;2022-07-09T09:07:14;7.93;;;1.63;;
63801;SDS011;49949;43.060;25.624;2022-07-09T09:09:41;4.60;;;1.83;;
63801;SDS011;49949;43.060;25.624;2022-07-09T09:12:07;2.05;;;1.40;;
63801;SDS011;49949;43.060;25.624;2022-07-09T09:14:33;9.63;;;2.00;;
63801;SDS011;49949;43.060;25.624;2022-07-09T09:17:17;6.53;;;1.60;;
63801;SDS011;49949;43.060;25.624;2022-07-09T09:19:43;2.20;;;1.48;;
63801;SDS011;49949;43.060;25.624;2022-07-09T09:22:08;9.25;;;1.65;;
63801;SDS011;49949;43.060;25.624;2022-07-09T09:24:34;5.00;;;1.58;;
63801;SDS011;49949;43.060;25.624;2022-07-09T09:27:03;35.88;;;3.25;;
63801;SDS011;49949;43.060;25.624;2022-07-09T09:29:29;6.03;;;1.80;;
63801;SDS011;49949;43.060;25.624;2022-07-09T09:31:54;42.08;;;2.85;;
63801;SDS011;49949;43.060;25.624;2022-07-09T09:34:21;4.50;;;1.73;;
63801;SDS011;49949;43.060;25.624;2022-07-09T09:36:48;1.50;;;1.40;;
63801;SDS011;49949;43.060;25.624;2022-07-09T09:39:25;11.18;;;1.50;;
63801;SDS011;49949;43.060;25.624;2022-07-09T09:41:54;11.68;;;1.40;;
63801;SDS011;49949;43.060;25.624;2022-07-09T09:44:22;3.65;;;1.20;;
63801;SDS011;49949;43.060;25.624;2022-07-09T09:46:51;5.68;;;1.73;;
63801;SDS011;49949;43.060;25.624;2022-07-09T09:49:17;1.20;;;1.10;;
63801;SDS011;49949;43.060;25.624;2022-07-09T09:54:23;12.45;;;1.63;;
63801;SDS011;49949;43.060;25.624;2022-07-09T09:56:49;6.53;;;1.50;;
63801;SDS011;49949;43.060;25.624;2022-07-09T09:59:15;3.50;;;1.05;;
63801;SDS011;49949;43.060;25.624;2022-07-09T10:01:42;1.10;;;1.10;;
63801;SDS011;49949;43.060;25.624;2022-07-09T10:04:08;14.05;;;1.20;;
63801;SDS011;49949;43.060;25.624;2022-07-09T10:06:35;3.60;;;1.35;;
63801;SDS011;49949;43.060;25.624;2022-07-09T10:09:05;9.95;;;1.10;;
63801;SDS011;49949;43.060;25.624;2022-07-09T10:11:38;1.80;;;1.10;;
63801;SDS011;49949;43.060;25.624;2022-07-09T10:14:04;1.95;;;1.08;;
63801;SDS011;49949;43.060;25.624;2022-07-09T10:16:37;21.40;;;1.60;;
63801;SDS011;49949;43.060;25.624;2022-07-09T10:19:04;1.35;;;1.05;;
63801;SDS011;49949;43.060;25.624;2022-07-09T10:21:32;2.85;;;1.42;;
63801;SDS011;49949;43.060;25.624;2022-07-09T10:23:59;3.15;;;1.23;;
63801;SDS011;49949;43.060;25.624;2022-07-09T10:26:44;3.88;;;1.10;;
63801;SDS011;49949;43.060;25.624;2022-07-09T10:29:19;5.93;;;1.42;;
63801;SDS011;49949;43.060;25.624;2022-07-09T10:31:46;14.63;;;1.58;;
63801;SDS011;49949;43.060;25.624;2022-07-09T10:34:21;1.38;;;1.00;;
63801;SDS011;49949;43.060;25.624;2022-07-09T10:37:04;1.10;;;0.98;;
63801;SDS011;49949;43.060;25.624;2022-07-09T10:39:30;45.67;;;3.40;;
63801;SDS011;49949;43.060;25.624;2022-07-09T10:44:33;5.78;;;1.35;;
63801;SDS011;49949;43.060;25.624;2022-07-09T10:47:03;2.90;;;1.10;;
63801;SDS011;49949;43.060;25.624;2022-07-09T10:49:30;2.20;;;0.90;;
63801;SDS011;49949;43.060;25.624;2022-07-09T10:51:56;3.95;;;1.17;;
63801;SDS011;49949;43.060;25.624;2022-07-09T10:54:23;7.93;;;1.20;;
63801;SDS011;49949;43.060;25.624;2022-07-09T10:56:49;5.13;;;1.02;;
63801;SDS011;49949;43.060;25.624;2022-07-09T10:59:17;3.85;;;1.08;;
63801;SDS011;49949;43.060;25.624;2022-07-09T11:01:43;6.32;;;1.02;;
63801;SDS011;49949;43.060;25.624;2022-07-09T11:04:09;13.60;;;1.80;;
63801;SDS011;49949;43.060;25.624;2022-07-09T11:06:49;3.20;;;1.20;;
63801;SDS011;49949;43.060;25.624;2022-07-09T11:09:15;1.63;;;0.80;;
63801;SDS011;49949;43.060;25.624;2022-07-09T11:11:42;3.72;;;1.00;;
63801;SDS011;49949;43.060;25.624;2022-07-09T11:14:09;9.57;;;1.40;;
63801;SDS011;49949;43.060;25.624;2022-07-09T11:16:35;13.95;;;1.50;;
63801;SDS011;49949;43.060;25.624;2022-07-09T11:19:14;6.20;;;1.00;;
63801;SDS011;49949;43.060;25.624;2022-07-09T11:21:40;15.70;;;2.60;;
63801;SDS011;49949;43.060;25.624;2022-07-09T11:24:19;3.83;;;0.80;;
63801;SDS011;49949;43.060;25.624;2022-07-09T11:26:48;2.13;;;1.08;;
63801;SDS011;49949;43.060;25.624;2022-07-09T11:29:15;4.40;;;1.00;;
63801;SDS011;49949;43.060;25.624;2022-07-09T11:31:49;2.60;;;0.90;;
63801;SDS011;49949;43.060;25.624;2022-07-09T11:34:16;5.10;;;1.05;;
63801;SDS011;49949;43.060;25.624;2022-07-09T11:36:43;4.10;;;1.10;;
63801;SDS011;49949;43.060;25.624;2022-07-09T11:39:09;5.57;;;1.10;;
63801;SDS011;49949;43.060;25.624;2022-07-09T11:41:46;6.82;;;1.10;;
63801;SDS011;49949;43.060;25.624;2022-07-09T11:44:19;5.10;;;1.20;;
63801;SDS011;49949;43.060;25.624;2022-07-09T11:47:04;11.98;;;1.35;;
63801;SDS011;49949;43.060;25.624;2022-07-09T11:52:25;16.75;;;1.33;;
63801;SDS011;49949;43.060;25.624;2022-07-09T11:54:53;5.72;;;1.20;;
63801;SDS011;49949;43.060;25.624;2022-07-09T11:57:20;3.05;;;1.20;;
63801;SDS011;49949;43.060;25.624;2022-07-09T11:59:49;175.13;;;8.10;;
63801;SDS011;49949;43.060;25.624;2022-07-09T12:02:25;6.63;;;1.92;;
63801;SDS011;49949;43.060;25.624;2022-07-09T12:05:02;8.18;;;1.48;;
63801;SDS011;49949;43.060;25.624;2022-07-09T12:07:30;5.97;;;1.20;;
63801;SDS011;49949;43.060;25.624;2022-07-09T12:09:57;5.35;;;1.10;;
63801;SDS011;49949;43.060;25.624;2022-07-09T12:12:31;2.53;;;1.00;;
63801;SDS011;49949;43.060;25.624;2022-07-09T12:14:58;11.35;;;1.45;;
63801;SDS011;49949;43.060;25.624;2022-07-09T12:17:25;16.58;;;1.52;;
63801;SDS011;49949;43.060;25.624;2022-07-09T12:19:51;9.45;;;1.75;;
63801;SDS011;49949;43.060;25.624;2022-07-09T12:22:18;5.78;;;1.33;;
63801;SDS011;49949;43.060;25.624;2022-07-09T12:24:45;7.55;;;1.50;;
63801;SDS011;49949;43.060;25.624;2022-07-09T12:27:12;12.73;;;1.30;;
63801;SDS011;49949;43.060;25.624;2022-07-09T12:29:38;13.98;;;1.60;;
63801;SDS011;49949;43.060;25.624;2022-07-09T12:32:04;8.40;;;1.17;;
63801;SDS011;49949;43.060;25.624;2022-07-09T12:34:30;18.05;;;1.33;;
63801;SDS011;49949;43.060;25.624;2022-07-09T12:36:56;24.48;;;2.00;;
63801;SDS011;49949;43.060;25.624;2022-07-09T12:39:22;19.23;;;1.55;;
63801;SDS011;49949;43.060;25.624;2022-07-09T12:41:48;14.02;;;1.20;;
63801;SDS011;49949;43.060;25.624;2022-07-09T12:44:13;5.68;;;1.40;;
63801;SDS011;49949;43.060;25.624;2022-07-09T12:46:39;46.15;;;2.95;;
63801;SDS011;49949;43.060;25.624;2022-07-09T12:49:05;24.92;;;1.23;;
63801;SDS011;49949;43.060;25.624;2022-07-09T12:51:31;10.13;;;1.17;;
63801;SDS011;49949;43.060;25.624;2022-07-09T12:53:56;17.70;;;1.80;;
63801;SDS011;49949;43.060;25.624;2022-07-09T12:56:22;17.00;;;1.52;;
63801;SDS011;49949;43.060;25.624;2022-07-09T12:58:48;8.63;;;1.40;;
63801;SDS011;49949;43.060;25.624;2022-07-09T13:01:14;20.50;;;2.47;;
63801;SDS011;49949;43.060;25.624;2022-07-09T13:03:39;5.57;;;1.60;;
63801;SDS011;49949;43.060;25.624;2022-07-09T13:06:06;2.75;;;1.20;;
63801;SDS011;49949;43.060;25.624;2022-07-09T13:08:52;1.50;;;1.27;;
63801;SDS011;49949;43.060;25.624;2022-07-09T13:11:18;5.90;;;1.35;;
63801;SDS011;49949;43.060;25.624;2022-07-09T13:13:43;4.18;;;1.42;;
63801;SDS011;49949;43.060;25.624;2022-07-09T13:16:09;5.32;;;1.20;;
63801;SDS011;49949;43.060;25.624;2022-07-09T13:18:35;6.60;;;1.23;;
63801;SDS011;49949;43.060;25.624;2022-07-09T13:21:00;14.60;;;1.13;;
63801;SDS011;49949;43.060;25.624;2022-07-09T13:23:26;7.93;;;1.40;;
63801;SDS011;49949;43.060;25.624;2022-07-09T13:25:52;112.32;;;5.38;;
63801;SDS011;49949;43.060;25.624;2022-07-09T13:28:17;5.03;;;1.27;;
63801;SDS011;49949;43.060;25.624;2022-07-09T13:30:43;3.40;;;1.38;;
63801;SDS011;49949;43.060;25.624;2022-07-09T13:33:09;4.13;;;1.30;;
63801;SDS011;49949;43.060;25.624;2022-07-09T13:35:34;2.63;;;1.27;;
63801;SDS011;49949;43.060;25.624;2022-07-09T13:38:00;14.55;;;1.75;;
63801;SDS011;49949;43.060;25.624;2022-07-09T13:40:26;2.80;;;1.30;;
63801;SDS011;49949;43.060;25.624;2022-07-09T13:42:52;10.00;;;1.52;;
63801;SDS011;49949;43.060;25.624;2022-07-09T13:45:17;7.40;;;1.70;;
63801;SDS011;49949;43.060;25.624;2022-07-09T13:47:43;5.03;;;1.65;;
63801;SDS011;49949;43.060;25.624;2022-07-09T13:50:09;13.38;;;2.33;;
63801;SDS011;49949;43.060;25.624;2022-07-09T13:52:34;11.18;;;1.83;;
63801;SDS011;49949;43.060;25.624;2022-07-09T13:55:00;4.25;;;1.58;;
63801;SDS011;49949;43.060;25.624;2022-07-09T13:57:26;9.98;;;2.13;;
63801;SDS011;49949;43.060;25.624;2022-07-09T13:59:52;18.55;;;2.00;;
63801;SDS011;49949;43.060;25.624;2022-07-09T14:02:17;3.90;;;1.42;;
63801;SDS011;49949;43.060;25.624;2022-07-09T14:04:43;8.02;;;1.80;;
63801;SDS011;49949;43.060;25.624;2022-07-09T14:07:09;19.55;;;2.35;;
63801;SDS011;49949;43.060;25.624;2022-07-09T14:09:34;5.00;;;1.90;;
63801;SDS011;49949;43.060;25.624;2022-07-09T14:12:00;11.20;;;1.83;;
63801;SDS011;49949;43.060;25.624;2022-07-09T14:14:26;4.60;;;1.40;;
63801;SDS011;49949;43.060;25.624;2022-07-09T14:16:52;8.60;;;1.60;;
63801;SDS011;49949;43.060;25.624;2022-07-09T14:19:17;5.18;;;1.52;;
63801;SDS011;49949;43.060;25.624;2022-07-09T14:21:43;9.80;;;1.92;;
63801;SDS011;49949;43.060;25.624;2022-07-09T14:24:09;3.55;;;1.48;;
63801;SDS011;49949;43.060;25.624;2022-07-09T14:26:34;6.45;;;1.73;;
63801;SDS011;49949;43.060;25.624;2022-07-09T14:29:00;5.30;;;1.50;;
63801;SDS011;49949;43.060;25.624;2022-07-09T14:31:26;11.77;;;1.77;;
63801;SDS011;49949;43.060;25.624;2022-07-09T14:33:52;12.32;;;1.73;;